Time;durP1;ratioP1;P1;durP2;ratioP2;P2;SDS_P1;SDS_P2;PMS_P1;PMS_P2;Temp;Humidity;BMP_temperature;BMP_pressure;BME280_temperature;BME280_humidity;BME280_pressure;Samples;Min_cycle;Max_cycle;Signal;HPM_P1;HPM_P2
2022/04/23 00:00:22;;;;;;;24.83;18.58;;;12.70;99.90;;;;;;5052665;28;20031;-56
2022/04/23 00:02:48;;;;;;;22.38;19.00;;;12.70;99.90;;;;;;5053874;28;20037;-56
2022/04/23 00:05:14;;;;;;;23.98;19.33;;;12.70;99.90;;;;;;5053611;28;20028;-56
2022/04/23 00:07:40;;;;;;;23.58;19.13;;;12.60;99.90;;;;;;5053107;28;20025;-56
2022/04/23 00:10:08;;;;;;;24.67;19.08;;;12.60;99.90;;;;;;5052554;28;20051;-56
2022/04/23 00:12:35;;;;;;;25.83;19.25;;;12.70;99.90;;;;;;5052669;28;20049;-56
2022/04/23 00:15:00;;;;;;;23.17;19.90;;;12.70;99.90;;;;;;5052559;28;20470;-56
2022/04/23 00:17:26;;;;;;;22.95;18.65;;;12.70;99.90;;;;;;5052273;28;20025;-55
2022/04/23 00:19:55;;;;;;;26.33;18.88;;;12.70;99.90;;;;;;5052341;28;20029;-56
2022/04/23 00:22:21;;;;;;;21.20;18.58;;;12.70;99.90;;;;;;5052532;28;20390;-56
2022/04/23 00:24:47;;;;;;;23.10;18.98;;;12.70;99.90;;;;;;5051986;28;20382;-57
2022/04/23 00:27:12;;;;;;;24.67;19.60;;;12.60;99.90;;;;;;5051626;28;20035;-56
2022/04/23 00:29:39;;;;;;;23.85;18.88;;;12.50;99.90;;;;;;5051995;28;20035;-56
2022/04/23 00:32:06;;;;;;;24.52;18.98;;;12.50;99.90;;;;;;5051677;28;20466;-56
2022/04/23 00:34:31;;;;;;;23.63;19.35;;;12.50;99.90;;;;;;5051497;28;20048;-56
2022/04/23 00:36:57;;;;;;;27.08;19.60;;;12.50;99.90;;;;;;5050401;28;20051;-56
2022/04/23 00:39:26;;;;;;;25.63;19.75;;;12.40;99.90;;;;;;5052005;28;20029;-56
2022/04/23 00:41:52;;;;;;;23.80;18.75;;;12.50;99.90;;;;;;5051533;28;20039;-55
2022/04/23 00:44:21;;;;;;;26.45;19.50;;;12.50;99.90;;;;;;5052419;28;20056;-56
2022/04/23 00:46:46;;;;;;;24.20;19.38;;;12.50;99.90;;;;;;5051374;28;20037;-56
2022/04/23 00:49:12;;;;;;;23.73;20.17;;;12.50;99.90;;;;;;5051729;28;20100;-56
2022/04/23 00:51:41;;;;;;;25.80;20.08;;;12.50;99.90;;;;;;5051691;28;20032;-56
2022/04/23 00:54:09;;;;;;;27.40;20.63;;;12.40;99.90;;;;;;5051826;28;20040;-55
2022/04/23 00:56:36;;;;;;;32.00;19.15;;;12.50;99.90;;;;;;5052152;28;20099;-55
2022/04/23 00:59:09;;;;;;;25.15;19.45;;;12.30;99.90;;;;;;5051798;28;20033;-55
2022/04/23 01:01:34;;;;;;;25.27;18.55;;;12.20;99.90;;;;;;5052085;28;20029;-55
2022/04/23 01:04:02;;;;;;;27.58;20.42;;;12.20;99.90;;;;;;5050505;28;20021;-54
2022/04/23 01:06:34;;;;;;;24.00;19.65;;;12.20;99.90;;;;;;5052048;28;20032;-55
2022/04/23 01:09:05;;;;;;;27.65;19.50;;;12.10;99.90;;;;;;5067010;28;20482;-55
2022/04/23 01:11:32;;;;;;;26.38;20.10;;;12.00;99.90;;;;;;5067249;28;20234;-54
2022/04/23 01:13:58;;;;;;;25.33;20.13;;;12.00;99.90;;;;;;5051856;28;20028;-55
2022/04/23 01:16:24;;;;;;;24.30;19.95;;;12.10;99.90;;;;;;5051817;28;20386;-55
2022/04/23 01:18:49;;;;;;;25.48;19.58;;;12.20;99.90;;;;;;5051535;28;20108;-55
2022/04/23 01:21:15;;;;;;;28.08;20.17;;;12.10;99.90;;;;;;5051126;28;20061;-55
2022/04/23 01:23:46;;;;;;;22.60;19.63;;;12.10;99.90;;;;;;5051822;28;20108;-55
2022/04/23 01:26:15;;;;;;;22.35;19.13;;;12.10;99.90;;;;;;5051558;28;20030;-55
2022/04/23 01:28:40;;;;;;;27.05;20.13;;;12.30;99.90;;;;;;5051437;28;20478;-55
2022/04/23 01:31:07;;;;;;;23.25;19.20;;;12.30;99.90;;;;;;5051733;28;20035;-55
2022/04/23 01:33:35;;;;;;;23.65;18.98;;;12.20;99.90;;;;;;5055306;28;20452;-55
2022/04/23 01:36:02;;;;;;;23.70;18.42;;;12.10;99.90;;;;;;5055069;28;20024;-56
2022/04/23 01:38:28;;;;;;;25.55;19.55;;;12.10;99.90;;;;;;5055089;28;20025;-55
2022/04/23 01:40:54;;;;;;;23.00;19.27;;;12.10;99.90;;;;;;5054637;28;20025;-56
2022/04/23 01:43:20;;;;;;;26.38;20.38;;;12.10;99.90;;;;;;5053794;28;20107;-55
2022/04/23 01:45:46;;;;;;;22.08;19.52;;;12.00;99.90;;;;;;5054778;28;20021;-55
2022/04/23 01:48:11;;;;;;;23.02;19.10;;;12.00;99.90;;;;;;5055109;28;20027;-55
2022/04/23 01:50:37;;;;;;;24.95;19.52;;;12.00;99.90;;;;;;5055208;28;20408;-55
2022/04/23 01:53:03;;;;;;;23.10;19.38;;;12.00;99.90;;;;;;5055177;28;20025;-55
2022/04/23 01:55:32;;;;;;;27.58;20.80;;;12.00;99.90;;;;;;5054993;28;20075;-54
2022/04/23 01:57:58;;;;;;;29.90;20.67;;;12.00;99.90;;;;;;5054822;28;20108;-55
2022/04/23 02:00:24;;;;;;;24.05;19.45;;;12.10;99.90;;;;;;5054720;28;20025;-55
2022/04/23 02:02:50;;;;;;;27.25;20.95;;;12.10;99.90;;;;;;5054999;28;20021;-55
2022/04/23 02:05:15;;;;;;;23.50;20.23;;;12.00;99.90;;;;;;5054231;28;20104;-55
2022/04/23 02:07:43;;;;;;;23.15;19.80;;;12.00;99.90;;;;;;5054426;28;20033;-55
2022/04/23 02:10:12;;;;;;;25.52;20.92;;;12.10;99.90;;;;;;5054724;28;20025;-55
2022/04/23 02:12:38;;;;;;;29.65;21.80;;;12.10;99.90;;;;;;5054827;28;20025;-55
2022/04/23 02:15:10;;;;;;;24.15;20.50;;;12.10;99.90;;;;;;5054628;28;20058;-55
2022/04/23 02:17:37;;;;;;;25.67;21.13;;;12.00;99.90;;;;;;5055012;28;20029;-55
2022/04/23 02:20:11;;;;;;;24.48;20.77;;;12.10;99.90;;;;;;5054560;28;20106;-55
2022/04/23 02:22:37;;;;;;;26.90;21.85;;;12.10;99.90;;;;;;5053490;28;20032;-55
2022/04/23 02:25:05;;;;;;;28.10;21.10;;;12.10;99.90;;;;;;5052997;28;20029;-55
2022/04/23 02:27:49;;;;;;;28.02;22.77;;;12.00;99.90;;;;;;5053961;28;20043;-55
2022/04/23 02:30:19;;;;;;;27.50;21.60;;;12.10;99.90;;;;;;5054220;28;20025;-55
2022/04/23 02:32:47;;;;;;;30.10;21.83;;;12.10;99.90;;;;;;5054183;28;20021;-55
2022/04/23 02:35:17;;;;;;;29.73;22.00;;;12.10;99.90;;;;;;5054026;28;20249;-55
2022/04/23 02:37:44;;;;;;;28.08;21.92;;;12.10;99.90;;;;;;5053888;28;20386;-55
2022/04/23 02:40:10;;;;;;;26.05;22.45;;;12.00;99.90;;;;;;5054087;28;20033;-55
2022/04/23 02:42:37;;;;;;;31.92;22.85;;;12.10;99.90;;;;;;5068507;28;20490;-55
2022/04/23 02:45:04;;;;;;;29.92;23.55;;;12.00;99.90;;;;;;5053268;28;20025;-55
2022/04/23 02:47:51;;;;;;;26.63;23.60;;;12.00;99.90;;;;;;5052310;28;20101;-55
2022/04/23 02:50:25;;;;;;;32.90;23.02;;;12.00;99.90;;;;;;5053521;28;20025;-54
2022/04/23 02:52:50;;;;;;;27.55;23.27;;;12.00;99.90;;;;;;5053895;28;20014;-55
2022/04/23 02:55:16;;;;;;;30.05;24.08;;;12.00;99.90;;;;;;5052406;28;20116;-55
2022/04/23 02:57:42;;;;;;;30.63;23.65;;;12.10;99.90;;;;;;5054135;28;20128;-56
2022/04/23 03:00:10;;;;;;;29.83;23.70;;;12.00;99.90;;;;;;5054155;28;20039;-55
2022/04/23 03:02:36;;;;;;;32.60;25.25;;;12.00;99.90;;;;;;5068909;28;20028;-54
2022/04/23 03:05:08;;;;;;;30.90;24.77;;;12.00;99.90;;;;;;5054039;28;20045;-54
2022/04/23 03:07:35;;;;;;;33.33;25.08;;;11.90;99.90;;;;;;5054547;28;20021;-54
2022/04/23 03:10:04;;;;;;;33.40;25.70;;;11.90;99.90;;;;;;5054447;28;20490;-54
2022/04/23 03:12:30;;;;;;;34.17;26.77;;;11.90;99.90;;;;;;5053163;28;20033;-57
2022/04/23 03:14:56;;;;;;;32.92;26.23;;;11.90;99.90;;;;;;5053975;28;20029;-55
2022/04/23 03:17:22;;;;;;;29.83;24.63;;;11.90;99.90;;;;;;5054163;28;20091;-54
2022/04/23 03:19:47;;;;;;;30.95;26.02;;;11.90;99.90;;;;;;5053939;28;20051;-55
2022/04/23 03:22:14;;;;;;;30.55;25.63;;;11.90;99.90;;;;;;5054535;28;20071;-55
2022/04/23 03:24:40;;;;;;;33.75;26.83;;;11.90;99.90;;;;;;5054203;28;20060;-55
2022/04/23 03:27:06;;;;;;;34.95;25.33;;;11.90;99.90;;;;;;5053679;28;20029;-54
2022/04/23 03:29:32;;;;;;;34.60;26.27;;;11.80;99.90;;;;;;5053363;28;20029;-55
2022/04/23 03:31:59;;;;;;;37.72;26.58;;;11.80;99.90;;;;;;5053207;28;20104;-55
2022/04/23 03:34:24;;;;;;;32.55;27.42;;;11.70;99.90;;;;;;5053821;28;20521;-55
2022/04/23 03:36:50;;;;;;;35.70;27.08;;;11.80;99.90;;;;;;5053532;28;20020;-55
2022/04/23 03:39:16;;;;;;;30.77;25.50;;;11.70;99.90;;;;;;5051813;28;20021;-56
2022/04/23 03:41:42;;;;;;;36.13;27.10;;;11.80;99.90;;;;;;5053166;28;20032;-56
2022/04/23 03:44:07;;;;;;;34.33;27.50;;;11.80;99.90;;;;;;5053925;28;20025;-56
2022/04/23 03:46:33;;;;;;;33.85;27.83;;;11.70;99.90;;;;;;5052860;28;20013;-56
2022/04/23 03:48:59;;;;;;;33.35;26.52;;;11.60;99.90;;;;;;5052956;28;20021;-55
2022/04/23 03:51:24;;;;;;;35.25;26.45;;;11.60;99.90;;;;;;5053162;28;20171;-56
2022/04/23 03:53:50;;;;;;;30.13;25.88;;;11.50;99.90;;;;;;5052936;28;20459;-56
2022/04/23 03:56:16;;;;;;;33.13;26.80;;;11.50;99.90;;;;;;5052534;28;20092;-55
2022/04/23 03:58:42;;;;;;;32.97;25.83;;;11.60;99.90;;;;;;5053673;28;20109;-55
2022/04/23 04:01:08;;;;;;;31.63;27.45;;;11.60;99.90;;;;;;5050949;28;20103;-54
2022/04/23 04:03:34;;;;;;;34.28;27.33;;;11.60;99.90;;;;;;5050989;28;20029;-55
2022/04/23 04:06:00;;;;;;;33.72;26.80;;;11.60;99.90;;;;;;5050825;28;20470;-55
2022/04/23 04:08:26;;;;;;;35.17;27.05;;;11.60;99.90;;;;;;5049435;28;20032;-54
2022/04/23 04:10:52;;;;;;;30.88;26.48;;;11.50;99.90;;;;;;5050816;28;20033;-54
2022/04/23 04:13:18;;;;;;;32.47;27.60;;;11.50;99.90;;;;;;5050981;28;20490;-55
2022/04/23 04:15:44;;;;;;;32.20;25.27;;;11.50;99.90;;;;;;5049513;28;20486;-55
2022/04/23 04:18:11;;;;;;;33.92;26.70;;;11.60;99.90;;;;;;5051302;28;20021;-55
2022/04/23 04:20:39;;;;;;;36.67;25.80;;;11.60;99.90;;;;;;5050846;28;20507;-55
2022/04/23 04:23:06;;;;;;;33.80;25.75;;;11.60;99.90;;;;;;5051278;28;20305;-55
2022/04/23 04:25:32;;;;;;;34.97;26.55;;;11.60;99.90;;;;;;5050809;28;20375;-54
2022/04/23 04:28:02;;;;;;;31.08;26.63;;;11.70;99.90;;;;;;5050462;28;20035;-54
2022/04/23 04:31:46;;;;;;;28.35;22.77;;;11.70;99.90;;;;;;5050356;28;20033;-55
2022/04/23 04:33:13;;;;;;;34.70;26.65;;;11.70;99.90;;;;;;5050504;28;20048;-54
2022/04/23 04:35:39;;;;;;;32.92;26.13;;;11.70;99.90;;;;;;5050510;28;20021;-55
2022/04/23 04:38:05;;;;;;;30.92;24.83;;;11.70;99.90;;;;;;5050407;28;20082;-55
2022/04/23 04:40:30;;;;;;;31.92;26.17;;;11.70;99.90;;;;;;5048707;28;20032;-54
2022/04/23 04:42:56;;;;;;;31.70;26.70;;;11.60;99.90;;;;;;5049382;28;20442;-54
2022/04/23 04:45:21;;;;;;;34.45;27.67;;;11.60;99.90;;;;;;5050446;28;20033;-54
2022/04/23 04:47:47;;;;;;;34.58;27.23;;;11.60;99.90;;;;;;5050302;28;20021;-55
2022/04/23 04:50:12;;;;;;;33.83;25.42;;;11.60;99.90;;;;;;5048898;28;20432;-54
2022/04/23 04:52:40;;;;;;;31.95;26.70;;;11.50;99.90;;;;;;5050343;28;20029;-55
2022/04/23 04:55:06;;;;;;;31.13;26.65;;;11.50;99.90;;;;;;5050149;28;20372;-55
2022/04/23 04:57:32;;;;;;;32.85;26.25;;;11.40;99.90;;;;;;5049883;28;20033;-55
2022/04/23 04:59:58;;;;;;;34.72;27.20;;;11.50;99.90;;;;;;5050123;28;20029;-55
2022/04/23 05:02:23;;;;;;;31.27;25.58;;;11.40;99.90;;;;;;5048849;28;20036;-54
2022/04/23 05:04:49;;;;;;;34.28;27.48;;;11.40;99.90;;;;;;5048773;28;20024;-54
2022/04/23 05:07:14;;;;;;;38.53;27.95;;;11.40;99.90;;;;;;5049581;28;20025;-55
2022/04/23 05:09:40;;;;;;;33.08;27.30;;;11.30;99.90;;;;;;5048972;28;20057;-54
2022/04/23 05:12:06;;;;;;;32.25;26.67;;;11.40;99.90;;;;;;5050012;28;20029;-55
2022/04/23 05:14:31;;;;;;;33.95;27.45;;;11.40;99.90;;;;;;5050354;28;20032;-54
2022/04/23 05:17:00;;;;;;;33.80;26.77;;;11.40;99.90;;;;;;5050037;28;20283;-54
2022/04/23 05:19:26;;;;;;;32.65;26.33;;;11.40;99.90;;;;;;5050264;28;20079;-54
2022/04/23 05:21:52;;;;;;;30.25;26.15;;;11.40;99.90;;;;;;5050109;28;20033;-54
2022/04/23 05:24:17;;;;;;;35.42;27.90;;;11.50;99.90;;;;;;5050361;28;20128;-55
2022/04/23 05:26:43;;;;;;;33.20;27.00;;;11.60;99.90;;;;;;5051268;28;20021;-54
2022/04/23 05:29:08;;;;;;;32.25;27.27;;;11.60;99.90;;;;;;5049973;28;20036;-54
2022/04/23 05:31:38;;;;;;;33.08;26.45;;;11.60;99.90;;;;;;5050050;28;20524;-54
2022/04/23 05:34:04;;;;;;;33.55;26.27;;;11.70;99.90;;;;;;5050613;28;20068;-54
2022/04/23 05:36:30;;;;;;;32.80;25.90;;;11.60;99.90;;;;;;5050404;28;20021;-55
2022/04/23 05:38:56;;;;;;;32.22;25.23;;;11.60;99.90;;;;;;5049824;28;20025;-54
2022/04/23 05:41:22;;;;;;;38.60;24.65;;;11.60;99.90;;;;;;5049797;28;20120;-55
2022/04/23 05:43:51;;;;;;;35.00;26.25;;;11.70;99.90;;;;;;5049671;28;20382;-55
2022/04/23 05:46:17;;;;;;;32.20;24.73;;;11.60;99.90;;;;;;5049848;28;20017;-55
2022/04/23 05:48:43;;;;;;;32.70;26.75;;;11.70;99.90;;;;;;5050048;28;20040;-55
2022/04/23 05:51:09;;;;;;;33.30;26.27;;;11.70;99.90;;;;;;5048570;28;20537;-54
2022/04/23 05:53:35;;;;;;;31.77;25.73;;;11.70;99.90;;;;;;5050022;28;20024;-55
2022/04/23 05:56:01;;;;;;;32.13;25.30;;;11.80;99.90;;;;;;5050582;28;20021;-54
2022/04/23 05:58:26;;;;;;;35.13;26.48;;;11.90;99.90;;;;;;5050072;28;20029;-54
2022/04/23 06:00:52;;;;;;;32.67;26.50;;;11.90;99.90;;;;;;5049917;28;20025;-54
2022/04/23 06:03:18;;;;;;;29.13;24.48;;;12.00;99.90;;;;;;5049799;28;20104;-54
2022/04/23 06:05:46;;;;;;;31.58;24.95;;;12.10;99.90;;;;;;5049643;28;20039;-55
2022/04/23 06:08:12;;;;;;;31.48;24.58;;;12.10;99.90;;;;;;5048457;28;20033;-54
2022/04/23 06:10:38;;;;;;;30.55;25.08;;;12.20;99.90;;;;;;5049987;28;20025;-55
2022/04/23 06:13:06;;;;;;;37.35;25.02;;;12.30;99.90;;;;;;5049882;28;20449;-55
2022/04/23 06:15:32;;;;;;;33.65;25.02;;;12.30;99.90;;;;;;5049661;28;20485;-55
2022/04/23 06:17:57;;;;;;;32.60;25.10;;;12.40;99.90;;;;;;5051834;28;20068;-54
2022/04/23 06:20:23;;;;;;;31.27;25.27;;;12.50;99.90;;;;;;5053215;28;20067;-54
2022/04/23 06:22:48;;;;;;;29.30;24.98;;;12.50;99.90;;;;;;5054131;28;20037;-54
2022/04/23 06:25:14;;;;;;;33.20;25.38;;;12.50;99.90;;;;;;5053282;28;20025;-54
2022/04/23 06:27:43;;;;;;;26.60;21.75;;;12.50;99.90;;;;;;5054062;28;20052;-54
2022/04/23 06:30:09;;;;;;;29.27;24.17;;;12.50;99.90;;;;;;5053499;28;20054;-54
2022/04/23 06:32:38;;;;;;;29.88;25.25;;;12.40;99.90;;;;;;5053788;28;20017;-54
2022/04/23 06:35:07;;;;;;;33.85;25.38;;;12.40;99.90;;;;;;5053286;28;20028;-54
2022/04/23 06:37:43;;;;;;;31.65;25.20;;;12.50;99.90;;;;;;5053433;28;20029;-54
2022/04/23 06:40:12;;;;;;;33.40;26.25;;;12.50;99.90;;;;;;5053300;28;20033;-55
2022/04/23 06:42:39;;;;;;;31.73;26.13;;;12.50;99.90;;;;;;5053637;28;20029;-54
2022/04/23 06:45:06;;;;;;;34.35;25.65;;;12.40;99.90;;;;;;5052958;28;20032;-54
2022/04/23 06:47:31;;;;;;;30.73;24.85;;;12.40;99.90;;;;;;5052538;28;20021;-54
2022/04/23 06:50:00;;;;;;;30.75;21.83;;;12.60;99.90;;;;;;5052855;28;20029;-54
2022/04/23 06:52:26;;;;;;;31.75;24.38;;;12.60;99.90;;;;;;5053053;28;20029;-54
2022/04/23 06:54:56;;;;;;;28.33;23.80;;;12.70;99.90;;;;;;5053031;28;20033;-54
2022/04/23 06:57:25;;;;;;;33.80;26.42;;;12.80;99.90;;;;;;5053473;28;20029;-55
2022/04/23 06:59:51;;;;;;;35.97;23.25;;;12.80;99.90;;;;;;5053657;28;20537;-55
2022/04/23 07:02:18;;;;;;;28.75;24.52;;;12.90;99.90;;;;;;5052974;28;20025;-55
2022/04/23 07:04:44;;;;;;;32.17;26.27;;;13.00;99.90;;;;;;5052650;28;20351;-55
2022/04/23 07:07:10;;;;;;;30.20;24.58;;;13.00;99.90;;;;;;5052563;28;20025;-55
2022/04/23 07:09:37;;;;;;;29.80;23.73;;;13.00;99.90;;;;;;5052293;28;20077;-55
2022/04/23 07:12:04;;;;;;;30.80;24.92;;;13.10;99.90;;;;;;5052741;28;20104;-55
2022/04/23 07:14:29;;;;;;;27.33;22.95;;;13.20;99.90;;;;;;5052830;28;20028;-55
2022/04/23 07:16:57;;;;;;;31.15;22.90;;;13.80;99.90;;;;;;5052312;28;20482;-55
2022/04/23 07:19:23;;;;;;;29.42;20.05;;;14.70;99.90;;;;;;5052495;28;20032;-56
2022/04/23 07:21:48;;;;;;;24.23;21.05;;;15.40;99.90;;;;;;5052428;28;20367;-56
2022/04/23 07:24:15;;;;;;;28.48;21.25;;;15.60;99.90;;;;;;5052203;28;20025;-55
2022/04/23 07:26:42;;;;;;;24.05;20.30;;;16.00;99.90;;;;;;5052284;28;20028;-55
2022/04/23 07:29:10;;;;;;;24.33;21.23;;;16.30;99.90;;;;;;5050795;28;20135;-55
2022/04/23 07:31:37;;;;;;;24.50;20.30;;;16.70;99.90;;;;;;5051576;28;20532;-55
2022/04/23 07:39:33;;;;;;;24.55;20.58;;;17.10;99.90;;;;;;5051340;28;20153;-55
2022/04/23 07:41:58;;;;;;;22.00;19.67;;;17.60;99.90;;;;;;5051093;28;20512;-55
2022/04/23 07:44:24;;;;;;;22.23;19.00;;;17.70;99.30;;;;;;5066612;28;20025;-55
2022/04/23 07:46:50;;;;;;;22.70;19.58;;;17.50;99.30;;;;;;5049656;28;20063;-55
2022/04/23 07:49:16;;;;;;;23.90;20.10;;;17.30;99.40;;;;;;5050861;28;20037;-55
2022/04/23 07:51:43;;;;;;;23.95;19.95;;;16.70;99.90;;;;;;5051773;28;20028;-55
2022/04/23 07:54:09;;;;;;;25.02;21.17;;;16.50;99.90;;;;;;5051228;28;20036;-55
2022/04/23 07:56:35;;;;;;;25.40;20.73;;;16.50;99.90;;;;;;5051249;28;20390;-55
2022/04/23 07:59:02;;;;;;;22.92;19.20;;;16.70;99.90;;;;;;5050621;28;20036;-55
2022/04/23 08:01:28;;;;;;;21.58;19.27;;;17.40;99.80;;;;;;5050965;28;20033;-55
2022/04/23 08:03:53;;;;;;;19.70;17.60;;;18.00;98.50;;;;;;5050650;28;20079;-56
2022/04/23 08:06:19;;;;;;;20.40;18.38;;;18.70;97.10;;;;;;5050538;28;20021;-56
2022/04/23 08:08:45;;;;;;;24.15;18.27;;;18.90;96.00;;;;;;5050873;28;20543;-56
2022/04/23 08:11:11;;;;;;;22.75;17.98;;;19.00;95.50;;;;;;5050662;28;20583;-56
2022/04/23 08:13:36;;;;;;;20.80;18.50;;;18.70;96.00;;;;;;5050579;28;20032;-55
2022/04/23 08:16:03;;;;;;;21.95;17.92;;;19.00;95.80;;;;;;5049222;28;20029;-56
2022/04/23 08:18:29;;;;;;;20.15;17.67;;;19.50;95.20;;;;;;5050565;28;20501;-56
2022/04/23 08:20:55;;;;;;;20.55;18.30;;;20.20;94.10;;;;;;5050714;28;20035;-56
2022/04/23 08:23:21;;;;;;;20.30;17.10;;;20.00;93.40;;;;;;5049179;28;20469;-56
2022/04/23 08:25:47;;;;;;;20.42;17.10;;;19.80;93.90;;;;;;5050429;28;20490;-56
2022/04/23 08:30:57;;;;;;;20.70;17.35;;;20.00;93.40;;;;;;5050505;28;20036;-56
2022/04/23 08:33:23;;;;;;;19.65;17.48;;;20.20;92.90;;;;;;5050442;28;20791;-56
2022/04/23 08:35:50;;;;;;;21.77;16.58;;;19.80;92.50;;;;;;5050546;28;20037;-56
2022/04/23 08:38:16;;;;;;;17.98;16.08;;;19.90;93.10;;;;;;5050682;28;20041;-57
2022/04/23 08:40:44;;;;;;;18.40;16.50;;;20.30;92.40;;;;;;5049638;28;20029;-57
2022/04/23 08:43:10;;;;;;;20.92;16.98;;;20.60;92.00;;;;;;5050831;28;20044;-57
2022/04/23 08:45:37;;;;;;;18.38;15.82;;;21.00;91.10;;;;;;5050244;28;20386;-56
2022/04/23 08:48:09;;;;;;;19.25;17.08;;;20.90;91.10;;;;;;5050036;28;20017;-57
2022/04/23 08:50:38;;;;;;;17.85;15.85;;;20.70;91.10;;;;;;5065440;28;20036;-56
2022/04/23 08:53:16;;;;;;;17.85;16.05;;;20.70;91.20;;;;;;5050181;28;20021;-56
2022/04/23 08:55:45;;;;;;;18.10;16.15;;;21.30;90.70;;;;;;5048933;28;20784;-56
2022/04/23 08:58:12;;;;;;;18.50;16.48;;;21.80;90.20;;;;;;5050221;28;20013;-57
2022/04/23 09:00:38;;;;;;;19.83;16.92;;;21.90;90.10;;;;;;5050394;28;20025;-57
2022/04/23 09:03:04;;;;;;;19.13;16.45;;;22.00;88.00;;;;;;5050206;28;20401;-57
2022/04/23 09:05:31;;;;;;;19.05;17.05;;;21.80;89.70;;;;;;5065565;28;20032;-57
2022/04/23 09:07:57;;;;;;;18.75;16.75;;;21.50;89.70;;;;;;5050032;28;20484;-57
2022/04/23 09:10:51;;;;;;;17.50;15.32;;;21.60;90.10;;;;;;5050070;28;20151;-57
2022/04/23 09:13:30;;;;;;;16.70;13.88;;;22.20;89.50;;;;;;5050423;28;20036;-57
2022/04/23 09:24:46;;;;;;;19.42;17.27;;;21.60;87.80;;;;;;5049902;28;20025;-56
2022/04/23 09:27:12;;;;;;;18.83;16.95;;;21.20;88.80;;;;;;5065308;28;20212;-56
2022/04/23 09:29:37;;;;;;;19.20;17.20;;;21.60;89.20;;;;;;5064937;28;20595;-56
2022/04/23 09:32:19;;;;;;;22.92;17.00;;;21.70;88.20;;;;;;5049996;28;20045;-57
2022/04/23 09:34:44;;;;;;;19.35;17.42;;;22.00;88.30;;;;;;5050389;28;20045;-56
2022/04/23 09:37:10;;;;;;;19.90;17.60;;;21.90;87.30;;;;;;5049088;28;20036;-58
2022/04/23 09:39:38;;;;;;;31.58;17.30;;;21.20;88.10;;;;;;5049531;28;20060;-57
2022/04/23 09:42:17;;;;;;;20.02;17.58;;;21.20;88.40;;;;;;5049340;28;20355;-57
2022/04/23 09:44:44;;;;;;;20.52;17.42;;;20.90;88.90;;;;;;5049856;28;20021;-57
2022/04/23 09:47:10;;;;;;;22.23;16.83;;;21.10;88.60;;;;;;5049604;28;20029;-56
2022/04/23 09:49:36;;;;;;;22.42;17.30;;;21.10;88.60;;;;;;5049652;28;20025;-56
2022/04/23 09:52:04;;;;;;;21.77;16.77;;;21.00;89.20;;;;;;5049999;28;20110;-57
2022/04/23 09:54:34;;;;;;;20.48;16.60;;;21.20;89.80;;;;;;5053589;28;20036;-57
2022/04/23 09:57:00;;;;;;;18.80;16.90;;;21.40;89.50;;;;;;5053493;28;20477;-58
2022/04/23 09:59:27;;;;;;;21.13;16.17;;;21.30;88.90;;;;;;5053691;28;20044;-56
2022/04/23 10:01:54;;;;;;;19.25;17.15;;;21.30;88.20;;;;;;5053224;28;20033;-57
2022/04/23 10:04:26;;;;;;;18.17;16.42;;;21.50;88.40;;;;;;5069203;28;20028;-57
2022/04/23 10:06:53;;;;;;;21.73;17.95;;;21.10;87.60;;;;;;5053102;28;20021;-56
2022/04/23 10:09:21;;;;;;;23.92;17.65;;;21.20;87.60;;;;;;5053143;28;20035;-56
2022/04/23 10:11:50;;;;;;;19.17;16.85;;;20.70;89.80;;;;;;5052893;28;20104;-56
2022/04/23 10:14:22;;;;;;;20.80;17.83;;;20.50;90.10;;;;;;5053098;28;20018;-56
2022/04/23 10:16:49;;;;;;;17.97;15.73;;;20.80;89.50;;;;;;5053179;28;20075;-56
2022/04/23 10:19:15;;;;;;;19.00;17.00;;;21.30;89.80;;;;;;5053436;28;20100;-57
2022/04/23 10:21:53;;;;;;;15.15;13.57;;;22.20;86.30;;;;;;5052873;28;20095;-57
2022/04/23 10:25:01;;;;;;;18.48;15.45;;;22.80;84.90;;;;;;5052656;28;20433;-56
2022/04/23 10:27:28;;;;;;;20.10;17.65;;;22.90;84.20;;;;;;5052767;28;20490;-56
2022/04/23 10:30:02;;;;;;;23.10;17.45;;;22.60;84.90;;;;;;5052754;28;20032;-58
2022/04/23 10:32:39;;;;;;;19.90;17.48;;;22.00;86.20;;;;;;5053359;28;20082;-56
2022/04/23 10:35:25;;;;;;;21.05;17.52;;;21.70;86.60;;;;;;5052524;28;20128;-56
2022/04/23 10:37:50;;;;;;;19.67;17.33;;;21.60;86.70;;;;;;5052395;28;20035;-57
2022/04/23 10:40:20;;;;;;;24.73;17.02;;;21.50;87.10;;;;;;5052425;28;20099;-56
2022/04/23 10:43:04;;;;;;;17.17;15.25;;;22.00;85.70;;;;;;5052986;28;20485;-57
2022/04/23 10:45:37;;;;;;;18.25;16.30;;;22.60;85.30;;;;;;5052671;28;20052;-57
2022/04/23 10:48:30;;;;;;;19.90;17.52;;;22.90;83.20;;;;;;5052529;28;20033;-57
2022/04/23 10:51:16;;;;;;;18.67;16.77;;;23.20;82.90;;;;;;5050350;28;20046;-57
2022/04/23 10:53:42;;;;;;;16.23;14.20;;;23.80;81.30;;;;;;5052585;28;20048;-57
2022/04/23 10:56:15;;;;;;;18.98;16.95;;;23.70;80.80;;;;;;5051257;28;20106;-57
2022/04/23 10:58:42;;;;;;;19.25;17.13;;;23.90;81.40;;;;;;5052911;28;20017;-57
2022/04/23 11:01:29;;;;;;;20.75;17.10;;;23.70;81.30;;;;;;5052275;28;20108;-57
2022/04/23 11:03:55;;;;;;;18.50;16.65;;;23.40;82.20;;;;;;5051723;28;20105;-57
2022/04/23 11:12:38;;;;;;;21.43;16.57;;;23.20;82.50;;;;;;5052304;28;20402;-57
2022/04/23 11:15:18;;;;;;;19.25;16.52;;;22.90;82.40;;;;;;5052021;28;20036;-57
2022/04/23 11:17:54;;;;;;;25.55;17.85;;;22.90;82.60;;;;;;5052695;28;20104;-57
2022/04/23 11:20:28;;;;;;;19.90;16.92;;;22.40;84.90;;;;;;5051809;28;20036;-57
2022/04/23 11:22:55;;;;;;;20.50;17.20;;;22.10;84.90;;;;;;5051953;28;20029;-57
2022/04/23 11:25:21;;;;;;;18.10;16.30;;;22.20;84.90;;;;;;5051901;28;20382;-57
2022/04/23 11:27:50;;;;;;;22.38;16.17;;;22.70;83.30;;;;;;5051846;28;20304;-57
2022/04/23 11:30:26;;;;;;;16.38;14.60;;;23.40;82.20;;;;;;5051757;28;20024;-57
2022/04/23 11:33:07;;;;;;;17.88;16.00;;;23.80;81.80;;;;;;5052074;28;20021;-57
2022/04/23 11:35:34;;;;;;;18.75;14.18;;;23.80;80.30;;;;;;5051795;28;20398;-57
2022/04/23 11:37:59;;;;;;;19.30;15.75;;;24.00;80.10;;;;;;5052010;28;20029;-57
2022/04/23 11:40:28;;;;;;;20.15;15.80;;;23.10;81.00;;;;;;5051806;28;20279;-57
2022/04/23 11:42:54;;;;;;;18.45;15.73;;;22.40;82.90;;;;;;5051662;28;20037;-57
2022/04/23 11:45:21;;;;;;;18.10;15.55;;;21.90;82.90;;;;;;5051308;28;20021;-57
2022/04/23 11:47:47;;;;;;;21.75;15.73;;;22.00;85.50;;;;;;5049848;28;20116;-57
2022/04/23 11:50:17;;;;;;;16.85;15.05;;;22.70;83.50;;;;;;5049844;28;20470;-57
2022/04/23 11:53:00;;;;;;;18.55;16.30;;;22.60;82.10;;;;;;5051157;28;20031;-57
2022/04/23 11:55:27;;;;;;;16.63;14.63;;;22.30;82.40;;;;;;5050888;28;20605;-57
2022/04/23 11:57:55;;;;;;;15.82;14.18;;;22.60;83.00;;;;;;5051087;28;20542;-57
2022/04/23 12:00:21;;;;;;;17.75;14.57;;;23.10;82.50;;;;;;5051240;28;20482;-57
2022/04/23 12:02:47;;;;;;;17.23;14.57;;;23.50;81.70;;;;;;5051409;28;20052;-57
2022/04/23 12:05:20;;;;;;;16.38;14.80;;;23.00;81.60;;;;;;5051152;28;20048;-57
2022/04/23 12:07:45;;;;;;;17.80;15.35;;;23.40;81.40;;;;;;5049804;28;20056;-57
2022/04/23 12:10:12;;;;;;;17.85;14.43;;;23.20;80.40;;;;;;5050865;28;20430;-57
2022/04/23 12:12:38;;;;;;;20.67;15.65;;;23.00;83.20;;;;;;5051264;28;20021;-57
2022/04/23 12:15:08;;;;;;;18.27;16.05;;;23.00;83.20;;;;;;5050587;28;20078;-57
2022/04/23 12:17:53;;;;;;;17.75;15.65;;;22.30;83.70;;;;;;5049379;28;20067;-56
2022/04/23 12:20:24;;;;;;;18.25;14.60;;;22.30;83.80;;;;;;5049029;28;20060;-56
2022/04/23 12:22:58;;;;;;;16.08;14.35;;;22.70;83.90;;;;;;5066077;28;20521;-57
2022/04/23 12:25:25;;;;;;;14.48;12.80;;;23.10;83.40;;;;;;5050776;28;20025;-56
2022/04/23 12:27:59;;;;;;;16.85;13.23;;;23.40;81.80;;;;;;5049313;28;20051;-57
2022/04/23 12:41:58;;;;;;;16.48;14.38;;;22.80;83.80;;;;;;5050231;28;20044;-57
2022/04/23 12:44:39;;;;;;;17.10;14.45;;;22.60;83.60;;;;;;5050124;28;20025;-57
2022/04/23 12:47:06;;;;;;;21.08;15.18;;;22.40;85.40;;;;;;5050381;28;20074;-57
2022/04/23 12:49:56;;;;;;;15.00;13.48;;;22.20;85.50;;;;;;5050284;28;20481;-57
2022/04/23 12:52:27;;;;;;;17.52;13.95;;;22.00;85.50;;;;;;5050859;28;20104;-57
2022/04/23 12:55:25;;;;;;;20.98;14.85;;;22.10;86.00;;;;;;5050197;28;20122;-57
2022/04/23 12:58:02;;;;;;;17.92;14.20;;;21.80;86.00;;;;;;5049928;28;20060;-57
2022/04/23 13:00:29;;;;;;;20.20;13.95;;;21.50;86.30;;;;;;5049670;28;20025;-56
2022/04/23 13:02:59;;;;;;;15.20;13.23;;;21.40;87.50;;;;;;5049962;28;20079;-56
2022/04/23 13:05:26;;;;;;;15.65;13.57;;;21.30;87.40;;;;;;5049748;28;20021;-56
2022/04/23 13:10:36;;;;;;;15.07;13.57;;;21.60;87.40;;;;;;5050043;28;20079;-56